Time;durP1;ratioP1;P1;durP2;ratioP2;P2;SDS_P1;SDS_P2;PMS_P1;PMS_P2;Temp;Humidity;BMP_temperature;BMP_pressure;BME280_temperature;BME280_humidity;BME280_pressure;Samples;Min_cycle;Max_cycle;Signal;HPM_P1;HPM_P2
2022/11/26 00:00:59;;;;;;;2.25;2.00;;;;;;;4.80;100.00;102372.88;5072778;28;20494;-74
2022/11/26 00:03:25;;;;;;;5.90;1.90;;;;;;;4.67;100.00;102362.16;5073189;28;20016;-74
2022/11/26 00:05:54;;;;;;;1.83;1.27;;;;;;;4.59;100.00;102366.91;5055565;28;20027;-74
2022/11/26 00:08:26;;;;;;;2.60;1.83;;;;;;;4.65;100.00;102379.69;5055695;28;20028;-74
2022/11/26 00:10:53;;;;;;;1.45;1.33;;;;;;;4.68;100.00;102384.78;5072516;28;20160;-74
2022/11/26 00:13:22;;;;;;;12.15;1.75;;;;;;;4.68;100.00;102384.78;5071141;28;20504;-75
2022/11/26 00:15:48;;;;;;;2.83;2.28;;;;;;;4.69;100.00;102387.31;5072379;28;20020;-74
2022/11/26 00:18:15;;;;;;;8.43;2.25;;;;;;;4.74;100.00;102400.19;5074285;28;20059;-74
2022/11/26 00:20:41;;;;;;;3.17;2.97;;;;;;;4.59;100.00;102372.16;5053977;28;20025;-74
2022/11/26 00:23:19;;;;;;;7.70;4.32;;;;;;;4.67;100.00;102377.88;5072088;28;20041;-74
2022/11/26 00:25:49;;;;;;;7.47;1.88;;;;;;;4.66;100.00;102382.25;5072591;28;20530;-74
2022/11/26 00:28:25;;;;;;;8.80;2.63;;;;;;;4.64;100.00;102378.00;5072125;28;20437;-74
2022/11/26 00:30:51;;;;;;;2.15;1.95;;;;;;;4.74;100.00;102405.41;5056344;28;20021;-76
2022/11/26 00:33:17;;;;;;;5.28;2.55;;;;;;;4.77;100.00;102409.63;5055617;28;20032;-75
2022/11/26 00:35:45;;;;;;;6.97;3.13;;;;;;;4.77;100.00;102413.13;5053852;28;20518;-75
2022/11/26 00:38:15;;;;;;;3.28;2.30;;;;;;;4.71;100.00;102405.56;5070938;28;20039;-74
2022/11/26 00:40:41;;;;;;;6.05;1.77;;;;;;;4.79;100.00;102413.91;5072852;28;20032;-74
2022/11/26 00:43:10;;;;;;;2.25;2.05;;;;;;;4.80;100.00;102425.19;5052897;28;20159;-74
2022/11/26 00:45:35;;;;;;;2.17;2.08;;;;;;;4.77;100.00;102420.09;5071286;28;20028;-74
2022/11/26 00:48:01;;;;;;;2.95;1.92;;;;;;;4.81;100.00;102430.34;5055967;28;20032;-74
2022/11/26 00:50:31;;;;;;;2.97;1.55;;;;;;;4.71;100.00;102421.25;5072592;28;20020;-75
2022/11/26 00:52:56;;;;;;;6.47;2.05;;;;;;;4.71;100.00;102400.34;5072139;28;20024;-75
2022/11/26 00:55:30;;;;;;;2.17;1.98;;;;;;;4.90;100.00;102429.91;5053981;28;20028;-74
2022/11/26 00:57:57;;;;;;;5.93;2.40;;;;;;;4.88;100.00;102439.59;5072399;28;20043;-74
2022/11/26 01:00:24;;;;;;;2.30;2.10;;;;;;;4.88;100.00;102444.00;5072378;28;20515;-75
2022/11/26 01:02:51;;;;;;;1.75;1.65;;;;;;;4.83;100.00;102446.81;5073678;28;20038;-75
2022/11/26 01:05:17;;;;;;;2.25;1.48;;;;;;;4.72;100.00;102443.88;5054738;28;20056;-74
2022/11/26 01:07:43;;;;;;;3.25;1.58;;;;;;;4.82;100.00;102462.59;5073370;28;20067;-74
2022/11/26 01:10:24;;;;;;;3.97;2.53;;;;;;;4.81;100.00;102459.13;5070079;28;20028;-74
2022/11/26 01:12:50;;;;;;;2.67;2.50;;;;;;;4.81;100.00;102461.72;5071359;28;20658;-74
2022/11/26 01:15:19;;;;;;;4.05;2.20;;;;;;;4.68;100.00;102448.41;5071931;28;20029;-74
2022/11/26 01:17:45;;;;;;;10.73;2.97;;;;;;;4.75;100.00;102459.44;5074394;28;20101;-75
2022/11/26 01:20:29;;;;;;;4.90;2.53;;;;;;;4.77;100.00;102461.94;5075131;28;20029;-75
2022/11/26 01:22:57;;;;;;;2.92;1.48;;;;;;;4.72;100.00;102460.41;5076415;28;20119;-75
2022/11/26 01:25:25;;;;;;;8.95;1.92;;;;;;;4.51;100.00;102420.44;5057072;28;20447;-74
2022/11/26 01:27:51;;;;;;;2.65;1.65;;;;;;;4.68;100.00;102464.09;5075364;28;20170;-74
2022/11/26 01:30:24;;;;;;;3.00;2.67;;;;;;;4.70;100.00;102464.00;5074648;28;20102;-74
2022/11/26 01:32:50;;;;;;;5.90;1.73;;;;;;;4.67;100.00;102462.38;5076619;28;20032;-74
2022/11/26 01:35:17;;;;;;;5.22;2.35;;;;;;;4.66;100.00;102465.06;5059297;28;20082;-74
2022/11/26 01:37:43;;;;;;;15.85;3.58;;;;;;;4.62;100.00;102469.63;5075608;28;20039;-74
2022/11/26 01:40:34;;;;;;;2.05;1.42;;;;;;;4.59;100.00;102468.91;5077117;28;20028;-74
2022/11/26 01:43:23;;;;;;;3.50;1.58;;;;;;;4.54;100.00;102476.97;5057443;28;20487;-74
2022/11/26 01:45:49;;;;;;;1.67;1.58;;;;;;;4.42;100.00;102452.25;5075148;28;20052;-74
2022/11/26 01:48:32;;;;;;;8.07;3.28;;;;;;;4.54;100.00;102475.19;5027451;28;20508;-74
2022/11/26 01:51:05;;;;;;;7.03;2.67;;;;;;;4.53;100.00;102470.88;5059598;28;20016;-74
2022/11/26 01:53:54;;;;;;;2.38;2.17;;;;;;;4.57;100.00;102473.34;5042693;28;20031;-74
2022/11/26 01:56:31;;;;;;;2.58;2.40;;;;;;;4.53;100.00;102481.34;5075649;28;20181;-74
2022/11/26 01:59:08;;;;;;;2.35;1.58;;;;;;;4.49;100.00;102468.50;5058370;28;20024;-75
2022/11/26 02:01:34;;;;;;;4.80;2.78;;;;;;;4.49;100.00;102471.94;5056740;28;20374;-75
2022/11/26 02:04:16;;;;;;;9.93;2.65;;;;;;;4.35;100.00;102460.41;5075904;28;20035;-75
2022/11/26 02:06:44;;;;;;;2.50;1.65;;;;;;;4.42;100.00;102474.91;5076297;28;20028;-75
2022/11/26 02:09:11;;;;;;;3.17;1.50;;;;;;;4.19;100.00;102445.44;5075863;28;20119;-75
2022/11/26 02:11:37;;;;;;;7.63;2.55;;;;;;;4.30;100.00;102481.53;5058089;28;20051;-75
2022/11/26 02:14:10;;;;;;;2.00;1.90;;;;;;;4.36;100.00;102486.50;5076657;28;20414;-75
2022/11/26 02:16:47;;;;;;;5.88;1.73;;;;;;;4.42;100.00;102482.75;5075477;28;20027;-75
2022/11/26 02:19:50;;;;;;;4.57;3.47;;;;;;;4.44;100.00;102491.38;5075077;28;20487;-75
2022/11/26 02:22:34;;;;;;;2.08;1.55;;;;;;;4.44;100.00;102484.38;5076182;28;20487;-74
2022/11/26 02:25:37;;;;;;;2.55;2.38;;;;;;;4.45;100.00;102486.06;5057045;28;20155;-74
2022/11/26 02:28:32;;;;;;;5.82;2.70;;;;;;;4.49;100.00;102487.63;5073185;28;20127;-74
2022/11/26 02:31:17;;;;;;;3.40;2.05;;;;;;;4.44;100.00;102492.25;5075058;28;20092;-74
2022/11/26 02:34:01;;;;;;;2.80;1.83;;;;;;;4.41;100.00;102487.13;5073939;28;20388;-74
2022/11/26 02:36:33;;;;;;;5.60;3.03;;;;;;;4.42;100.00;102488.84;5073489;28;20016;-74
2022/11/26 02:39:17;;;;;;;2.78;2.58;;;;;;;4.27;100.00;102469.47;5057564;28;20008;-74
2022/11/26 02:41:53;;;;;;;2.72;2.13;;;;;;;4.32;100.00;102484.94;5075015;28;20027;-74
2022/11/26 02:44:22;;;;;;;2.90;2.53;;;;;;;4.43;100.00;102492.28;5056025;28;20544;-74
2022/11/26 02:46:57;;;;;;;19.02;3.55;;;;;;;4.29;100.00;102477.22;5073844;28;20827;-74
2022/11/26 02:49:23;;;;;;;1.52;1.42;;;;;;;4.30;100.00;102477.16;5075080;28;20020;-74
2022/11/26 02:51:53;;;;;;;3.10;2.80;;;;;;;4.32;100.00;102477.94;5040053;28;20039;-74
2022/11/26 02:54:21;;;;;;;5.35;3.63;;;;;;;4.42;100.00;102488.84;5057526;28;20064;-74
2022/11/26 02:56:48;;;;;;;3.78;2.33;;;;;;;4.22;100.00;102473.19;5074331;28;20384;-74
2022/11/26 02:59:14;;;;;;;3.88;2.95;;;;;;;4.30;100.00;102489.38;5073549;28;20559;-74
2022/11/26 03:01:46;;;;;;;5.10;2.15;;;;;;;4.24;100.00;102495.72;5026121;28;20039;-74
2022/11/26 03:04:18;;;;;;;2.28;2.08;;;;;;;4.14;100.00;102478.78;5074417;28;20468;-74
2022/11/26 03:06:45;;;;;;;6.53;2.03;;;;;;;4.17;100.00;102485.63;5073610;28;20127;-74
2022/11/26 03:09:10;;;;;;;3.95;2.85;;;;;;;4.17;100.00;102493.47;5073830;28;20493;-74
2022/11/26 03:11:36;;;;;;;1.75;1.60;;;;;;;4.07;100.00;102488.66;5055719;28;20032;-74
2022/11/26 03:14:02;;;;;;;2.97;1.92;;;;;;;4.04;100.00;102491.38;5056144;28;20036;-74
2022/11/26 03:16:28;;;;;;;2.30;1.95;;;;;;;3.87;100.00;102470.38;5073319;28;20032;-74
2022/11/26 03:18:53;;;;;;;3.33;2.33;;;;;;;3.91;100.00;102477.16;5054759;28;20642;-74
2022/11/26 03:21:19;;;;;;;5.45;3.15;;;;;;;3.95;100.00;102486.56;5033135;28;20071;-74
2022/11/26 03:23:44;;;;;;;6.22;2.83;;;;;;;4.04;100.00;102504.44;5073450;28;20028;-74
2022/11/26 03:26:09;;;;;;;4.78;2.25;;;;;;;3.96;100.00;102488.25;5073437;28;20031;-74
2022/11/26 03:28:35;;;;;;;4.45;2.78;;;;;;;3.91;100.00;102490.22;5022468;28;20127;-74
2022/11/26 03:31:00;;;;;;;7.85;3.88;;;;;;;4.09;100.00;102514.69;5039931;28;20063;-74
2022/11/26 03:33:26;;;;;;;4.63;3.67;;;;;;;4.04;100.00;102520.13;5074146;28;20020;-75
2022/11/26 03:35:51;;;;;;;8.73;3.33;;;;;;;3.99;100.00;102511.66;5040266;28;20024;-75
2022/11/26 03:38:17;;;;;;;5.00;3.50;;;;;;;4.01;100.00;102527.25;5055940;28;20035;-74
2022/11/26 03:40:42;;;;;;;6.93;3.65;;;;;;;4.01;100.00;102538.56;5071262;28;20025;-74
2022/11/26 03:43:08;;;;;;;6.38;3.30;;;;;;;3.80;100.00;102523.78;5054559;28;20617;-74
2022/11/26 03:45:33;;;;;;;5.13;2.83;;;;;;;3.92;100.00;102547.63;5055643;28;20024;-74
2022/11/26 03:47:58;;;;;;;6.38;2.80;;;;;;;3.95;100.00;102553.66;5055255;28;20039;-74
2022/11/26 03:50:24;;;;;;;2.50;2.30;;;;;;;3.70;100.00;102516.34;5055338;28;20115;-74
2022/11/26 03:52:49;;;;;;;2.35;2.05;;;;;;;3.92;100.00;102558.09;5040240;28;20463;-74
2022/11/26 03:55:14;;;;;;;10.10;3.92;;;;;;;3.78;100.00;102539.53;5073187;28;20039;-74
2022/11/26 03:57:40;;;;;;;3.17;2.10;;;;;;;3.91;100.00;102563.38;5072676;28;20582;-74
2022/11/26 04:00:07;;;;;;;4.28;2.40;;;;;;;3.94;100.00;102560.59;5074765;28;20028;-74
2022/11/26 04:02:33;;;;;;;2.70;2.22;;;;;;;3.82;100.00;102545.47;5055533;28;20020;-75
2022/11/26 04:04:58;;;;;;;5.78;2.83;;;;;;;3.83;100.00;102541.94;5053135;28;20127;-75
2022/11/26 04:07:24;;;;;;;3.95;2.75;;;;;;;4.03;100.00;102575.91;5039048;28;20035;-75
2022/11/26 04:09:49;;;;;;;3.05;2.33;;;;;;;4.02;100.00;102566.38;5074458;28;20056;-75
2022/11/26 04:12:15;;;;;;;3.55;2.92;;;;;;;4.04;100.00;102572.38;5073615;28;20024;-75
2022/11/26 04:14:40;;;;;;;2.60;2.40;;;;;;;3.94;100.00;102534.47;5054034;28;20127;-75
2022/11/26 04:17:05;;;;;;;5.65;1.95;;;;;;;3.96;100.00;102544.88;5055144;28;20094;-75
2022/11/26 04:19:31;;;;;;;6.90;4.00;;;;;;;4.07;100.00;102576.63;5072429;28;20063;-75
2022/11/26 04:21:56;;;;;;;2.40;2.20;;;;;;;4.11;100.00;102579.03;5056412;28;20445;-75
2022/11/26 04:24:21;;;;;;;4.47;2.53;;;;;;;4.04;100.00;102561.94;5072045;28;20054;-75
2022/11/26 04:26:47;;;;;;;3.67;2.20;;;;;;;4.13;100.00;102587.66;5038706;28;20123;-74
2022/11/26 04:29:12;;;;;;;8.43;3.47;;;;;;;4.13;100.00;102569.38;5073591;28;20059;-74
2022/11/26 04:31:38;;;;;;;3.65;2.75;;;;;;;4.12;100.00;102580.75;5073001;28;20094;-74
2022/11/26 04:34:03;;;;;;;2.92;2.50;;;;;;;4.13;100.00;102576.38;5072410;28;20430;-74
2022/11/26 04:36:28;;;;;;;1.90;1.77;;;;;;;3.99;100.00;102563.91;5055622;28;20040;-74
2022/11/26 04:38:54;;;;;;;9.95;2.90;;;;;;;4.12;100.00;102580.75;5038634;28;20119;-74
2022/11/26 04:41:19;;;;;;;8.80;2.25;;;;;;;4.11;100.00;102588.63;5038176;28;20052;-75
2022/11/26 04:43:44;;;;;;;2.10;2.00;;;;;;;4.07;100.00;102582.72;5038633;28;20391;-75
2022/11/26 04:46:10;;;;;;;6.00;2.30;;;;;;;3.99;100.00;102589.19;5073769;28;20698;-75
2022/11/26 04:48:35;;;;;;;4.97;2.42;;;;;;;3.94;100.00;102585.88;5055169;28;20112;-75
2022/11/26 04:51:02;;;;;;;4.32;2.38;;;;;;;3.80;100.00;102562.97;5072785;28;20467;-75
2022/11/26 04:53:27;;;;;;;10.80;2.58;;;;;;;3.87;100.00;102587.91;5075917;28;20027;-75
2022/11/26 04:55:52;;;;;;;4.00;3.80;;;;;;;3.49;100.00;102528.53;5058266;28;20020;-75
2022/11/26 04:58:19;;;;;;;3.90;2.65;;;;;;;3.82;100.00;102587.25;5077225;28;20020;-75
2022/11/26 05:00:45;;;;;;;2.65;2.03;;;;;;;3.75;100.00;102586.66;5058950;28;20055;-75
2022/11/26 05:03:11;;;;;;;4.57;3.00;;;;;;;3.73;100.00;102588.50;5058682;28;20036;-75
2022/11/26 05:05:37;;;;;;;3.58;1.75;;;;;;;3.67;100.00;102586.97;5057512;28;20078;-74
2022/11/26 05:08:03;;;;;;;5.70;3.58;;;;;;;3.53;100.00;102565.81;5058676;28;20073;-74
2022/11/26 05:10:28;;;;;;;5.28;2.75;;;;;;;3.53;100.00;102589.31;5061551;28;20370;-74
2022/11/26 05:12:53;;;;;;;2.50;2.30;;;;;;;3.63;100.00;102608.88;5060262;28;20048;-74
2022/11/26 05:15:19;;;;;;;3.03;2.17;;;;;;;3.59;100.00;102606.47;5059300;28;20024;-74
2022/11/26 05:17:44;;;;;;;2.58;2.38;;;;;;;3.55;100.00;102605.75;5056861;28;20050;-75
2022/11/26 05:20:10;;;;;;;3.92;3.20;;;;;;;3.48;100.00;102602.53;5060096;28;20507;-74
2022/11/26 05:22:36;;;;;;;6.70;4.38;;;;;;;3.49;100.00;102616.44;5075297;28;20035;-74
2022/11/26 05:25:02;;;;;;;3.35;2.67;;;;;;;3.46;100.00;102611.31;5042983;28;20043;-74
2022/11/26 05:27:27;;;;;;;6.03;3.22;;;;;;;3.47;100.00;102619.09;5073091;28;20049;-74
2022/11/26 05:29:54;;;;;;;2.85;2.63;;;;;;;3.45;100.00;102620.06;5076951;28;20052;-74
2022/11/26 05:32:19;;;;;;;2.38;2.17;;;;;;;3.46;100.00;102626.97;5075753;28;20115;-74
2022/11/26 05:34:44;;;;;;;3.72;1.63;;;;;;;3.41;100.00;102618.50;5056746;28;20031;-74
2022/11/26 05:37:10;;;;;;;3.13;2.65;;;;;;;3.46;100.00;102627.84;5057211;28;20027;-74
2022/11/26 05:39:36;;;;;;;14.82;3.83;;;;;;;3.42;100.00;102631.50;5075733;28;20024;-74
2022/11/26 05:42:02;;;;;;;5.50;3.47;;;;;;;3.49;100.00;102642.53;5074247;28;20118;-74
2022/11/26 05:44:27;;;;;;;5.35;3.38;;;;;;;3.35;100.00;102623.94;5073199;28;20107;-74
2022/11/26 05:46:54;;;;;;;3.80;2.45;;;;;;;3.32;100.00;102613.63;5038498;28;20037;-74
2022/11/26 05:49:19;;;;;;;7.32;2.55;;;;;;;3.38;100.00;102635.13;5037626;28;20028;-74
2022/11/26 05:51:45;;;;;;;7.25;2.10;;;;;;;3.44;100.00;102650.56;5056583;28;20499;-74
2022/11/26 05:54:14;;;;;;;3.10;2.47;;;;;;;3.42;100.00;102647.16;5074932;28;20071;-74
2022/11/26 05:56:40;;;;;;;10.10;2.95;;;;;;;3.33;100.00;102644.03;5041996;28;20515;-74
2022/11/26 05:59:05;;;;;;;4.40;4.07;;;;;;;3.34;100.00;102643.13;5040681;28;20028;-74
2022/11/26 06:01:32;;;;;;;2.85;2.47;;;;;;;3.38;100.00;102649.94;5039230;28;20445;-74
2022/11/26 06:03:57;;;;;;;3.88;2.25;;;;;;;3.36;100.00;102651.75;5038820;28;20101;-74
2022/11/26 06:06:23;;;;;;;3.28;2.95;;;;;;;3.27;100.00;102632.09;5056752;28;20043;-74
2022/11/26 06:08:48;;;;;;;3.35;2.72;;;;;;;3.39;100.00;102649.03;5073957;28;20058;-75
2022/11/26 06:11:14;;;;;;;3.42;2.30;;;;;;;3.27;100.00;102642.53;5054853;28;20047;-74
2022/11/26 06:13:39;;;;;;;6.43;2.97;;;;;;;3.34;100.00;102653.56;5074199;28;20028;-75
2022/11/26 06:16:05;;;;;;;8.15;3.35;;;;;;;3.35;100.00;102661.31;5073653;28;20028;-75
2022/11/26 06:18:31;;;;;;;3.60;2.97;;;;;;;3.33;100.00;102651.84;5073600;28;20315;-74
2022/11/26 06:21:00;;;;;;;3.95;3.42;;;;;;;3.26;100.00;102651.25;5074591;28;20031;-74
2022/11/26 06:23:26;;;;;;;8.50;4.45;;;;;;;3.21;100.00;102646.19;5071912;28;20044;-74
2022/11/26 06:25:51;;;;;;;6.03;3.13;;;;;;;3.24;100.00;102659.13;5073554;28;20369;-74
2022/11/26 06:28:17;;;;;;;3.33;2.88;;;;;;;3.32;100.00;102660.63;5056944;28;20067;-74
2022/11/26 06:30:45;;;;;;;3.65;2.88;;;;;;;3.25;100.00;102653.00;5038301;28;20032;-74
2022/11/26 06:33:11;;;;;;;4.65;3.63;;;;;;;3.40;100.00;102669.84;5053301;28;20028;-75
2022/11/26 06:35:36;;;;;;;4.25;3.03;;;;;;;3.03;100.00;102613.84;5073550;28;20040;-75
2022/11/26 06:38:02;;;;;;;4.15;3.38;;;;;;;3.39;100.00;102680.34;5070050;28;20032;-75
2022/11/26 06:40:27;;;;;;;7.88;3.47;;;;;;;3.28;100.00;102659.88;5071551;28;20085;-75
2022/11/26 06:42:53;;;;;;;3.58;3.28;;;;;;;3.34;100.00;102670.09;5056771;28;20044;-74
2022/11/26 06:45:20;;;;;;;3.50;3.08;;;;;;;3.42;100.00;102677.59;5054141;28;20038;-74
2022/11/26 06:47:47;;;;;;;3.13;2.67;;;;;;;3.40;100.00;102688.13;5072168;28;20077;-73
2022/11/26 06:50:13;;;;;;;9.38;3.47;;;;;;;3.24;100.00;102664.34;5058341;28;20036;-74
2022/11/26 06:52:39;;;;;;;17.40;3.92;;;;;;;3.42;100.00;102693.25;5056409;28;20086;-74
2022/11/26 06:55:05;;;;;;;3.78;2.30;;;;;;;3.38;100.00;102683.88;5055041;28;20024;-74
2022/11/26 06:57:30;;;;;;;5.18;4.00;;;;;;;3.44;100.00;102689.72;5075311;28;20028;-75
2022/11/26 06:59:55;;;;;;;3.33;2.80;;;;;;;3.30;100.00;102674.56;5055145;28;20039;-75
2022/11/26 07:02:21;;;;;;;2.38;1.85;;;;;;;3.43;100.00;102706.25;5022594;28;20044;-75
2022/11/26 07:04:46;;;;;;;3.38;2.72;;;;;;;3.38;100.00;102699.53;5056934;28;20200;-74
2022/11/26 07:07:11;;;;;;;4.13;3.75;;;;;;;3.40;100.00;102695.09;5056874;28;20116;-74
2022/11/26 07:09:38;;;;;;;4.13;2.80;;;;;;;3.37;100.00;102679.53;5025226;28;20039;-74
2022/11/26 07:12:04;;;;;;;4.43;3.33;;;;;;;3.46;100.00;102700.06;5069852;28;20032;-74
2022/11/26 07:14:29;;;;;;;5.72;3.70;;;;;;;3.49;100.00;102713.03;5054680;28;20051;-74
2022/11/26 07:16:55;;;;;;;4.45;4.15;;;;;;;3.53;100.00;102705.91;5056613;28;20209;-74
2022/11/26 07:19:20;;;;;;;4.40;3.17;;;;;;;3.51;100.00;102706.00;5040244;28;20342;-75
2022/11/26 07:21:45;;;;;;;8.98;3.08;;;;;;;3.56;100.00;102711.03;5040540;28;20493;-74
2022/11/26 07:24:11;;;;;;;4.63;3.30;;;;;;;3.50;100.00;102706.88;5070369;28;20453;-74
2022/11/26 07:26:36;;;;;;;7.10;3.63;;;;;;;3.55;100.00;102728.47;5057555;28;20173;-75
2022/11/26 07:29:02;;;;;;;4.63;3.10;;;;;;;3.50;100.00;102717.31;5054319;28;20531;-74
2022/11/26 07:31:27;;;;;;;6.55;3.75;;;;;;;3.39;100.00;102694.22;5072228;28;20339;-74
2022/11/26 07:33:53;;;;;;;7.03;3.45;;;;;;;3.35;100.00;102713.53;5039628;28;20024;-74
2022/11/26 07:36:21;;;;;;;2.78;2.58;;;;;;;3.59;100.00;102727.41;5053537;28;20048;-74
2022/11/26 07:38:47;;;;;;;5.88;4.15;;;;;;;3.42;100.00;102708.94;5072551;28;20035;-74
2022/11/26 07:41:16;;;;;;;3.25;2.88;;;;;;;3.44;100.00;102712.31;5053887;28;20060;-74
2022/11/26 07:43:42;;;;;;;3.38;2.03;;;;;;;3.56;100.00;102734.53;5074477;28;20043;-75
2022/11/26 07:46:09;;;;;;;7.03;3.20;;;;;;;3.48;100.00;102713.91;5071065;28;20036;-74
2022/11/26 07:48:37;;;;;;;16.15;3.05;;;;;;;3.68;100.00;102741.88;5075055;28;20128;-74
2022/11/26 07:51:02;;;;;;;2.63;2.42;;;;;;;3.67;100.00;102746.25;5069812;28;20435;-75
2022/11/26 07:53:32;;;;;;;4.88;3.40;;;;;;;3.76;100.00;102750.28;5051785;28;20032;-74
2022/11/26 07:55:58;;;;;;;3.90;3.47;;;;;;;3.88;100.00;102756.81;5073825;28;20020;-74
2022/11/26 07:58:25;;;;;;;6.82;5.72;;;;;;;3.85;100.00;102759.50;5072664;28;20081;-74
2022/11/26 08:00:51;;;;;;;5.88;4.25;;;;;;;3.84;100.00;102758.66;5069627;28;20081;-74
2022/11/26 08:03:17;;;;;;;9.88;4.78;;;;;;;3.91;100.00;102764.50;5070222;28;20482;-75
2022/11/26 08:05:43;;;;;;;4.55;4.15;;;;;;;3.99;100.00;102764.22;5035915;28;20632;-74
2022/11/26 08:08:09;;;;;;;3.63;2.33;;;;;;;4.13;100.00;102754.91;5056860;28;20115;-74
2022/11/26 08:10:35;;;;;;;5.70;3.42;;;;;;;4.26;100.00;102765.72;5070694;28;20119;-74
2022/11/26 08:13:00;;;;;;;5.28;4.03;;;;;;;4.31;100.00;102747.22;5071035;28;20535;-74
2022/11/26 08:15:26;;;;;;;7.30;4.07;;;;;;;4.57;100.00;102763.59;5055321;28;20483;-74
2022/11/26 08:17:56;;;;;;;4.38;3.55;;;;;;;4.51;100.00;102765.56;5052795;28;20032;-74
2022/11/26 08:20:22;;;;;;;5.97;3.85;;;;;;;4.58;100.00;102770.56;5067383;28;20033;-74
2022/11/26 08:22:47;;;;;;;3.28;2.70;;;;;;;4.72;100.00;102773.44;5070607;28;20081;-74
2022/11/26 08:25:13;;;;;;;3.97;3.33;;;;;;;4.76;100.00;102771.53;5055655;28;20032;-73
2022/11/26 08:27:38;;;;;;;10.75;5.03;;;;;;;4.80;100.00;102771.34;5052973;28;20048;-73
2022/11/26 08:30:05;;;;;;;4.45;3.53;;;;;;;4.83;100.00;102767.75;5069775;28;20038;-75
2022/11/26 08:32:31;;;;;;;16.60;5.15;;;;;;;4.90;100.00;102756.09;5048897;28;20460;-75
2022/11/26 08:34:57;;;;;;;4.43;3.72;;;;;;;4.97;100.00;102768.00;5070136;28;20537;-74
2022/11/26 08:37:22;;;;;;;7.05;4.53;;;;;;;5.08;100.00;102771.00;5056358;28;20039;-74
2022/11/26 08:39:47;;;;;;;11.23;4.00;;;;;;;5.11;100.00;102764.78;5069395;28;20037;-74
2022/11/26 08:42:13;;;;;;;8.75;4.75;;;;;;;5.15;100.00;102766.34;5054634;28;20119;-74
2022/11/26 08:44:38;;;;;;;7.43;3.25;;;;;;;5.13;100.00;102757.72;5039143;28;20113;-74
2022/11/26 08:47:03;;;;;;;4.38;3.35;;;;;;;5.29;100.00;102774.47;5053458;28;20364;-73
2022/11/26 08:49:29;;;;;;;8.05;4.15;;;;;;;5.33;100.00;102757.69;5064404;28;20452;-73
2022/11/26 08:51:55;;;;;;;7.55;3.63;;;;;;;5.37;100.00;102750.53;5039404;28;20040;-73
2022/11/26 08:54:21;;;;;;;12.30;4.22;;;;;;;5.67;100.00;102758.75;5053809;28;20399;-73
2022/11/26 08:56:46;;;;;;;5.38;4.13;;;;;;;5.98;100.00;102768.66;5037502;28;20050;-75
2022/11/26 08:59:11;;;;;;;4.55;3.67;;;;;;;6.22;100.00;102778.06;5052506;28;20408;-75
2022/11/26 09:01:37;;;;;;;10.32;3.58;;;;;;;6.37;100.00;102772.06;5053670;28;20392;-73
2022/11/26 09:04:03;;;;;;;12.18;4.60;;;;;;;6.50;100.00;102760.03;5069720;28;20049;-73
2022/11/26 09:06:31;;;;;;;9.93;3.63;;;;;;;6.62;100.00;102757.72;5069750;28;20464;-75
2022/11/26 09:09:11;;;;;;;7.50;4.63;;;;;;;6.71;100.00;102758.13;5049898;28;20126;-75
2022/11/26 09:11:38;;;;;;;7.63;3.53;;;;;;;6.76;100.00;102735.13;5054319;28;20127;-74
2022/11/26 09:14:04;;;;;;;8.40;3.40;;;;;;;7.15;100.00;102756.75;5054389;28;20026;-74
2022/11/26 09:16:30;;;;;;;8.95;3.53;;;;;;;7.30;100.00;102739.34;5070863;28;20366;-74
2022/11/26 09:18:58;;;;;;;14.07;3.33;;;;;;;7.61;100.00;102744.63;5072940;28;20035;-74
2022/11/26 09:21:23;;;;;;;7.88;3.63;;;;;;;7.72;100.00;102732.66;5069153;28;20489;-74
2022/11/26 09:23:49;;;;;;;5.97;3.70;;;;;;;7.92;100.00;102742.06;5035987;28;20039;-75
2022/11/26 09:26:14;;;;;;;5.47;2.95;;;;;;;8.15;100.00;102733.72;5054872;28;20435;-75
2022/11/26 09:28:40;;;;;;;6.22;3.45;;;;;;;8.30;100.00;102720.63;5071236;28;20106;-74
2022/11/26 09:31:05;;;;;;;3.63;3.10;;;;;;;8.56;100.00;102735.78;5051471;28;20043;-74
2022/11/26 09:33:31;;;;;;;8.25;3.47;;;;;;;8.56;100.00;102738.41;5054812;28;20028;-74
2022/11/26 09:36:05;;;;;;;4.95;3.33;;;;;;;8.69;100.00;102729.75;5057401;28;20539;-74
2022/11/26 09:38:31;;;;;;;9.00;2.80;;;;;;;8.71;100.00;102738.41;5051764;28;20036;-74
2022/11/26 09:41:23;;;;;;;6.93;3.72;;;;;;;8.64;100.00;102741.44;5075372;28;20508;-74
2022/11/26 09:44:11;;;;;;;3.15;2.15;;;;;;;8.67;100.00;102739.53;5057718;28;20117;-74
2022/11/26 09:46:42;;;;;;;3.58;2.10;;;;;;;9.14;100.00;102743.72;5058932;28;20031;-74
2022/11/26 09:49:12;;;;;;;7.60;2.55;;;;;;;9.59;100.00;102745.28;5059483;28;20059;-74
2022/11/26 09:51:39;;;;;;;10.65;2.97;;;;;;;9.96;100.00;102744.72;5074466;28;20040;-74
2022/11/26 09:54:05;;;;;;;6.60;2.80;;;;;;;10.29;100.00;102755.75;5057666;28;20067;-74
2022/11/26 09:56:31;;;;;;;6.82;2.30;;;;;;;10.38;100.00;102742.88;5057152;28;20059;-74
2022/11/26 09:59:02;;;;;;;5.88;3.10;;;;;;;10.53;100.00;102756.84;5075367;28;20032;-74
2022/11/26 10:01:30;;;;;;;6.72;3.38;;;;;;;10.41;100.00;102754.09;5073748;28;20119;-74
2022/11/26 10:03:57;;;;;;;8.02;2.67;;;;;;;10.65;100.00;102753.41;5074983;28;20022;-74
2022/11/26 10:06:54;;;;;;;13.02;2.33;;;;;;;10.42;100.00;102754.94;5057811;28;20116;-74
2022/11/26 10:09:31;;;;;;;6.63;2.83;;;;;;;10.58;100.00;102760.91;5072109;28;20058;-74
2022/11/26 10:12:30;;;;;;;4.32;2.58;;;;;;;10.75;100.00;102756.25;5055514;28;20038;-74
2022/11/26 10:15:09;;;;;;;5.80;2.83;;;;;;;10.26;100.00;102758.56;5058935;28;20124;-74
2022/11/26 10:17:49;;;;;;;5.68;3.10;;;;;;;9.84;100.00;102756.91;5054666;28;20046;-75
2022/11/26 10:20:49;;;;;;;9.52;2.90;;;;;;;10.16;100.00;102765.38;5073280;28;20047;-75
2022/11/26 10:23:26;;;;;;;4.22;2.10;;;;;;;10.46;100.00;102759.06;5072040;28;20032;-75
2022/11/26 10:26:06;;;;;;;8.63;2.85;;;;;;;10.32;100.00;102744.13;5042631;28;20041;-74
2022/11/26 10:28:43;;;;;;;5.30;2.58;;;;;;;10.17;100.00;102750.38;5052348;28;20094;-74
2022/11/26 10:31:18;;;;;;;5.25;2.38;;;;;;;9.85;100.00;102746.25;5072255;28;20492;-74
2022/11/26 10:33:52;;;;;;;15.20;5.03;;;;;;;9.28;100.00;102754.28;5073032;28;20031;-74
2022/11/26 10:36:23;;;;;;;12.82;3.58;;;;;;;9.20;100.00;102765.28;5058560;28;20020;-74
2022/11/26 10:38:48;;;;;;;;;;;;;;;9.00;100.00;102758.59;5074531;28;20043;-74
2022/11/26 10:41:14;;;;;;;2.47;2.08;;;;;;;8.73;100.00;102760.25;5057532;28;19917;-74
2022/11/26 10:43:40;;;;;;;8.40;2.40;;;;;;;8.53;100.00;102746.47;5069796;28;20646;-74
2022/11/26 10:46:05;;;;;;;8.45;2.60;;;;;;;8.51;100.00;102752.75;5055707;28;20519;-74
2022/11/26 10:48:34;;;;;;;4.68;2.40;;;;;;;8.36;100.00;102751.84;5056139;28;20036;-74
2022/11/26 10:51:29;;;;;;;7.10;2.25;;;;;;;8.20;100.00;102765.88;5037319;28;20322;-74
2022/11/26 10:53:57;;;;;;;5.20;3.08;;;;;;;8.41;100.00;102744.56;5074334;28;20028;-74
2022/11/26 10:56:34;;;;;;;11.48;2.90;;;;;;;8.27;100.00;102733.94;5073571;28;20029;-74
2022/11/26 10:59:02;;;;;;;6.13;2.72;;;;;;;8.26;100.00;102756.78;5073397;28;20111;-74
2022/11/26 11:01:39;;;;;;;5.38;2.47;;;;;;;8.33;100.00;102763.38;5075828;28;20031;-74
2022/11/26 11:04:28;;;;;;;8.02;2.72;;;;;;;8.20;100.00;102750.09;5072427;28;20150;-74
2022/11/26 11:06:55;;;;;;;4.18;2.88;;;;;;;8.32;100.00;102766.09;5073129;28;20020;-74
2022/11/26 11:09:28;;;;;;;5.18;3.25;;;;;;;8.19;100.00;102740.50;5039910;28;20596;-74
2022/11/26 11:12:19;;;;;;;8.07;4.40;;;;;;;8.37;100.00;102758.81;5052043;28;20024;-74
2022/11/26 11:14:45;;;;;;;9.48;3.80;;;;;;;8.38;100.00;102765.75;5067370;28;20534;-74
2022/11/26 11:17:35;;;;;;;11.85;4.07;;;;;;;8.37;100.00;102754.38;5072406;28;20050;-74
2022/11/26 11:20:16;;;;;;;5.93;3.95;;;;;;;8.34;100.00;102766.84;5056467;28;20089;-74
2022/11/26 11:22:44;;;;;;;3.80;3.38;;;;;;;8.29;100.00;102766.28;5075464;28;20487;-74
2022/11/26 11:25:26;;;;;;;5.80;2.55;;;;;;;8.22;100.00;102753.47;5075462;28;20743;-74
2022/11/26 11:27:54;;;;;;;9.05;2.78;;;;;;;8.36;100.00;102755.34;5073063;28;20056;-74
2022/11/26 11:30:24;;;;;;;7.28;3.58;;;;;;;8.30;100.00;102736.44;5073852;28;20107;-74
2022/11/26 11:32:55;;;;;;;3.85;3.28;;;;;;;8.40;100.00;102756.84;5073268;28;20035;-74